#dbistima — V2PX5 — position and weather

sailwx.info

Track history (hours):
 
Tides and Currents Weather Stations Pressure Air Temp Water Temp Dewpoint Dewpoint Depression Visibility Wind Speed Wind Dir Waves Ship Positions

#dbistima

Last reported at 2016-Jul-27 01:33 UTC. Time now 2016-Jul-27 01:56 UTC.
Position N 59°60' E 027°05'.

MMSI: 304010972.

Date/timePositionNaut miles runAvg speedWind from/ knotsBaromVisibWave heightAir tempDewpointWater temp
2016-Jul-27 01:33N 59°60' E 027°05'1010.3
2016-Jul-27 00:32N 60°05' E 027°23'1110.2
2016-Jul-26 23:30N 60°11' E 027°41'910.0
2016-Jul-26 22:33N 60°18' E 027°54'13 9.7
2016-Jul-26 21:13N 60°26' E 028°14'10 9.0
2016-Jul-26 20:06N 60°35' E 028°24'4 8.1
2016-Jul-26 19:33N 60°37' E 028°32'  
2016-Jul-22 15:33N 60°13' E 027°49'19 9.3
2016-Jul-22 13:31N 60°05' E 028°24'1010.3
2016-Jul-22 12:33N 60°03' E 028°43'1110.7
2016-Jul-22 11:33N 60°02' E 029°05'2110.5
2016-Jul-22 09:33N 59°59' E 029°46'1110.7
2016-Jul-22 08:33N 59°54' E 030°06'4 4.4
2016-Jul-22 07:32N 59°53' E 030°14'0 0.0
2016-Jul-22 04:32N 59°53' E 030°14'0 0.0
2016-Jul-22 03:32N 59°53' E 030°14'0 0.0
2016-Jul-22 02:32N 59°53' E 030°14'0 0.0
2016-Jul-22 01:32N 59°53' E 030°14'0 0.0
2016-Jul-22 00:32N 59°53' E 030°14'0 0.0
2016-Jul-21 23:32N 59°53' E 030°14'0 0.0
2016-Jul-21 22:33N 59°53' E 030°14'0 0.0
2016-Jul-21 21:32N 59°53' E 030°14'0 0.0
2016-Jul-21 20:32N 59°53' E 030°14'0 0.0
2016-Jul-21 19:32N 59°53' E 030°14'0 0.0
2016-Jul-21 18:32N 59°53' E 030°14'0 0.0
2016-Jul-21 17:32N 59°53' E 030°14'0 0.0
2016-Jul-21 16:32N 59°53' E 030°14'0 0.0
2016-Jul-21 15:23N 59°53' E 030°14'0 0.0
2016-Jul-21 14:32N 59°53' E 030°14'0 0.0
2016-Jul-21 13:32N 59°53' E 030°14'0 0.0
2016-Jul-21 12:29N 59°53' E 030°14'0 0.0
2016-Jul-21 11:32N 59°53' E 030°14'0 0.0
2016-Jul-21 10:29N 59°53' E 030°14'0 0.0
2016-Jul-21 09:32N 59°53' E 030°14'0 0.0
2016-Jul-21 08:31N 59°53' E 030°14'0 0.0
2016-Jul-21 07:28N 59°53' E 030°14'0 0.0
2016-Jul-21 06:31N 59°53' E 030°14'0 0.0
2016-Jul-21 05:31N 59°53' E 030°14'0 0.0
2016-Jul-21 04:31N 59°53' E 030°14'0 0.0
2016-Jul-21 03:31N 59°53' E 030°14'0 0.0
2016-Jul-21 02:31N 59°53' E 030°14'0 0.0
2016-Jul-21 01:31N 59°53' E 030°14'0 0.0
2016-Jul-21 00:31N 59°53' E 030°14'0 0.0
2016-Jul-20 23:31N 59°53' E 030°14'0 0.0
2016-Jul-20 22:31N 59°53' E 030°14'0 0.4
2016-Jul-20 21:31N 59°53' E 030°14'0 0.0
2016-Jul-20 20:31N 59°53' E 030°14'0 0.0
2016-Jul-20 19:31N 59°53' E 030°14'0 0.0
2016-Jul-20 18:31N 59°53' E 030°14'0 0.0
2016-Jul-20 17:31N 59°53' E 030°14'0 0.0
2016-Jul-20 16:31N 59°53' E 030°14'0 0.0
2016-Jul-20 15:33N 59°53' E 030°14'5 5.0
2016-Jul-20 14:33N 59°54' E 030°04'10 9.8
2016-Jul-20 13:33N 59°58' E 029°46'11 0.3
2016-Jul-19 03:12N 60°02' E 029°25'20 1.6
2016-Jul-18 15:10N 60°02' E 028°45'6 9.5
2016-Jul-18 14:33N 60°02' E 028°34'10 9.7
2016-Jul-18 13:29N 60°07' E 028°15'1010.2
2016-Jul-18 12:33N 60°10' E 027°57'9 9.4
2016-Jul-18 11:33N 60°08' E 027°38'1010.0
2016-Jul-18 10:32N 60°03' E 027°20'11 9.8
2016-Jul-18 09:23N 59°58' E 026°60'910.2
2016-Jul-18 08:29N 59°60' E 026°42'910.1
2016-Jul-18 07:33N 59°57' E 026°24'1110.3
2016-Jul-18 06:31N 59°54' E 026°03'3210.6
2016-Jul-18 03:29N 59°47' E 025°01'1010.9
2016-Jul-18 02:33N 59°45' E 024°42'2610.6
2016-Jul-18 00:05N 59°38' E 023°51'610.5
2016-Jul-17 23:28N 59°36' E 023°39'910.4
2016-Jul-17 22:33N 59°33' E 023°22'  
Track history (hours):
 
Tides and Currents Weather Stations Pressure Air Temp Water Temp Dewpoint Dewpoint Depression Visibility Wind Speed Wind Dir Waves Ship Positions

#dbistima

Last reported at 2016-Jul-27 01:33 UTC. Time now 2016-Jul-27 01:56 UTC.
Position N 59°60' E 027°05'.

MMSI: 304010972.

Date/timePositionNaut miles runAvg speedWind from/ knotsBaromVisibWave heightAir tempDewpointWater temp
2016-Jul-27 01:33N 59°60' E 027°05'1010.3
2016-Jul-27 00:32N 60°05' E 027°23'1110.2
2016-Jul-26 23:30N 60°11' E 027°41'910.0
2016-Jul-26 22:33N 60°18' E 027°54'13 9.7
2016-Jul-26 21:13N 60°26' E 028°14'10 9.0
2016-Jul-26 20:06N 60°35' E 028°24'4 8.1
2016-Jul-26 19:33N 60°37' E 028°32'  
2016-Jul-22 15:33N 60°13' E 027°49'19 9.3
2016-Jul-22 13:31N 60°05' E 028°24'1010.3
2016-Jul-22 12:33N 60°03' E 028°43'1110.7
2016-Jul-22 11:33N 60°02' E 029°05'2110.5
2016-Jul-22 09:33N 59°59' E 029°46'1110.7
2016-Jul-22 08:33N 59°54' E 030°06'4 4.4
2016-Jul-22 07:32N 59°53' E 030°14'0 0.0
2016-Jul-22 04:32N 59°53' E 030°14'0 0.0
2016-Jul-22 03:32N 59°53' E 030°14'0 0.0
2016-Jul-22 02:32N 59°53' E 030°14'0 0.0
2016-Jul-22 01:32N 59°53' E 030°14'0 0.0
2016-Jul-22 00:32N 59°53' E 030°14'0 0.0
2016-Jul-21 23:32N 59°53' E 030°14'0 0.0
2016-Jul-21 22:33N 59°53' E 030°14'0 0.0
2016-Jul-21 21:32N 59°53' E 030°14'0 0.0
2016-Jul-21 20:32N 59°53' E 030°14'0 0.0
2016-Jul-21 19:32N 59°53' E 030°14'0 0.0
2016-Jul-21 18:32N 59°53' E 030°14'0 0.0
2016-Jul-21 17:32N 59°53' E 030°14'0 0.0
2016-Jul-21 16:32N 59°53' E 030°14'0 0.0
2016-Jul-21 15:23N 59°53' E 030°14'0 0.0
2016-Jul-21 14:32N 59°53' E 030°14'0 0.0
2016-Jul-21 13:32N 59°53' E 030°14'0 0.0
2016-Jul-21 12:29N 59°53' E 030°14'0 0.0
2016-Jul-21 11:32N 59°53' E 030°14'0 0.0
2016-Jul-21 10:29N 59°53' E 030°14'0 0.0
2016-Jul-21 09:32N 59°53' E 030°14'0 0.0
2016-Jul-21 08:31N 59°53' E 030°14'0 0.0
2016-Jul-21 07:28N 59°53' E 030°14'0 0.0
2016-Jul-21 06:31N 59°53' E 030°14'0 0.0
2016-Jul-21 05:31N 59°53' E 030°14'0 0.0
2016-Jul-21 04:31N 59°53' E 030°14'0 0.0
2016-Jul-21 03:31N 59°53' E 030°14'0 0.0
2016-Jul-21 02:31N 59°53' E 030°14'0 0.0
2016-Jul-21 01:31N 59°53' E 030°14'0 0.0
2016-Jul-21 00:31N 59°53' E 030°14'0 0.0
2016-Jul-20 23:31N 59°53' E 030°14'0 0.0
2016-Jul-20 22:31N 59°53' E 030°14'0 0.4
2016-Jul-20 21:31N 59°53' E 030°14'0 0.0
2016-Jul-20 20:31N 59°53' E 030°14'0 0.0
2016-Jul-20 19:31N 59°53' E 030°14'0 0.0
2016-Jul-20 18:31N 59°53' E 030°14'0 0.0
2016-Jul-20 17:31N 59°53' E 030°14'0 0.0
2016-Jul-20 16:31N 59°53' E 030°14'0 0.0
2016-Jul-20 15:33N 59°53' E 030°14'5 5.0
2016-Jul-20 14:33N 59°54' E 030°04'10 9.8
2016-Jul-20 13:33N 59°58' E 029°46'11 0.3
2016-Jul-19 03:12N 60°02' E 029°25'20 1.6
2016-Jul-18 15:10N 60°02' E 028°45'6 9.5
2016-Jul-18 14:33N 60°02' E 028°34'10 9.7
2016-Jul-18 13:29N 60°07' E 028°15'1010.2
2016-Jul-18 12:33N 60°10' E 027°57'9 9.4
2016-Jul-18 11:33N 60°08' E 027°38'1010.0
2016-Jul-18 10:32N 60°03' E 027°20'11 9.8
2016-Jul-18 09:23N 59°58' E 026°60'910.2
2016-Jul-18 08:29N 59°60' E 026°42'910.1
2016-Jul-18 07:33N 59°57' E 026°24'1110.3
2016-Jul-18 06:31N 59°54' E 026°03'3210.6
2016-Jul-18 03:29N 59°47' E 025°01'1010.9
2016-Jul-18 02:33N 59°45' E 024°42'2610.6
2016-Jul-18 00:05N 59°38' E 023°51'610.5
2016-Jul-17 23:28N 59°36' E 023°39'910.4
2016-Jul-17 22:33N 59°33' E 023°22'  

Dump ship's entire track history